createdAt,value
2023-05-10T00:00:36.658Z,4.30
2023-05-10T00:03:13.654Z,4.20
2023-05-10T00:05:42.694Z,6.70
2023-05-10T00:08:11.944Z,4.50
2023-05-10T00:10:41.415Z,4.60
2023-05-10T00:13:09.935Z,8.10
2023-05-10T00:15:46.229Z,3.90
2023-05-10T00:18:14.641Z,4.30
2023-05-10T00:20:43.128Z,7.40
2023-05-10T00:23:11.553Z,3.80
2023-05-10T00:25:41.995Z,6.40
2023-05-10T00:28:10.582Z,5.30
2023-05-10T00:30:39.018Z,3.50
2023-05-10T00:33:07.571Z,4.70
2023-05-10T00:35:36.418Z,5.80
2023-05-10T00:38:05.067Z,3.90
2023-05-10T00:40:33.988Z,4.80
2023-05-10T00:43:02.429Z,3.90
2023-05-10T00:45:31.476Z,4.20
2023-05-10T00:48:00.316Z,5.00
2023-05-10T00:50:30.054Z,3.40
2023-05-10T00:52:58.459Z,3.00
2023-05-10T00:55:27.312Z,5.00
2023-05-10T00:57:56.356Z,5.60
2023-05-10T01:00:26.202Z,4.30
2023-05-10T01:02:55.303Z,5.20
2023-05-10T01:05:24.004Z,4.30
2023-05-10T01:07:53.366Z,5.10
2023-05-10T01:10:22.734Z,7.00
2023-05-10T01:12:51.286Z,4.70
2023-05-10T01:15:20.190Z,3.70
2023-05-10T01:17:50.261Z,4.30
2023-05-10T01:20:21.053Z,3.60
2023-05-10T01:23:11.179Z,2.20
2023-05-10T01:26:12.661Z,2.90
2023-05-10T01:29:21.477Z,3.20
2023-05-10T01:32:28.630Z,3.40
2023-05-10T01:35:02.031Z,2.90
2023-05-10T01:37:40.951Z,4.60
2023-05-10T01:40:20.918Z,3.80
2023-05-10T01:42:52.226Z,5.00
2023-05-10T01:45:26.168Z,5.80
2023-05-10T01:48:03.152Z,3.90
2023-05-10T01:50:32.710Z,6.10
2023-05-10T01:53:03.636Z,3.90
2023-05-10T01:55:34.718Z,3.50
2023-05-10T01:58:08.364Z,3.70
2023-05-10T02:00:38.587Z,2.20
2023-05-10T02:03:09.258Z,2.90
2023-05-10T02:05:38.745Z,6.60
2023-05-10T02:08:08.490Z,3.80
2023-05-10T02:10:37.388Z,3.80
2023-05-10T02:13:07.341Z,3.20
2023-05-10T02:15:36.368Z,3.00
2023-05-10T02:18:08.362Z,2.70
2023-05-10T02:20:36.866Z,2.00
2023-05-10T02:23:07.706Z,3.30
2023-05-10T02:25:37.956Z,6.80
2023-05-10T02:28:07.629Z,3.80
2023-05-10T02:30:36.620Z,2.80
2023-05-10T02:33:06.393Z,3.40
2023-05-10T02:35:35.725Z,4.20
2023-05-10T02:38:06.015Z,2.90
2023-05-10T02:40:35.793Z,6.10
2023-05-10T02:43:05.014Z,1.40
2023-05-10T02:45:33.956Z,2.70
2023-05-10T02:48:03.243Z,3.50
2023-05-10T02:50:37.699Z,4.20
2023-05-10T02:53:12.942Z,3.70
2023-05-10T02:55:42.601Z,2.70
2023-05-10T02:58:11.029Z,2.70
2023-05-10T03:00:40.330Z,4.30
2023-05-10T03:03:08.870Z,3.50
2023-05-10T03:05:37.355Z,3.80
2023-05-10T03:08:06.648Z,4.10
2023-05-10T03:10:41.732Z,4.00
2023-05-10T03:13:17.976Z,4.30
2023-05-10T03:15:51.838Z,3.70
2023-05-10T03:18:24.203Z,4.30
2023-05-10T03:20:56.339Z,3.90
2023-05-10T03:23:31.284Z,3.80
2023-05-10T03:26:01.209Z,2.40
2023-05-10T03:28:29.878Z,2.80
2023-05-10T03:31:01.148Z,2.70
2023-05-10T03:33:32.235Z,2.70
2023-05-10T03:36:02.105Z,3.10
2023-05-10T03:38:31.223Z,3.30
2023-05-10T03:41:00.350Z,2.80
2023-05-10T03:43:29.174Z,2.90
2023-05-10T03:45:57.479Z,3.00
2023-05-10T03:48:25.913Z,3.90
2023-05-10T03:50:54.443Z,3.70
2023-05-10T03:53:23.545Z,3.40
2023-05-10T03:55:52.316Z,3.10
2023-05-10T03:58:20.924Z,3.20
2023-05-10T04:00:49.548Z,4.70
2023-05-10T04:03:18.087Z,4.10
2023-05-10T04:05:47.047Z,5.70
2023-05-10T04:08:16.880Z,3.50
2023-05-10T04:10:45.553Z,3.20
2023-05-10T04:13:14.517Z,4.00
2023-05-10T04:15:43.642Z,3.90
2023-05-10T04:18:12.073Z,6.50
2023-05-10T04:20:40.772Z,3.80
2023-05-10T04:23:09.229Z,3.20
2023-05-10T04:25:37.622Z,3.10
2023-05-10T04:28:06.771Z,6.30
2023-05-10T04:30:36.380Z,3.30
2023-05-10T04:33:05.062Z,3.50
2023-05-10T04:35:34.602Z,6.20
2023-05-10T04:38:03.092Z,3.90
2023-05-10T04:40:32.679Z,3.90
2023-05-10T04:43:01.202Z,6.10
2023-05-10T04:45:29.867Z,5.00
2023-05-10T04:47:58.711Z,6.20
2023-05-10T04:50:27.919Z,3.40
2023-05-10T04:52:56.454Z,6.20
2023-05-10T04:55:24.932Z,4.60
2023-05-10T04:57:55.570Z,6.40
2023-05-10T05:00:26.704Z,6.30
2023-05-10T05:02:55.241Z,4.70
2023-05-10T05:05:24.137Z,6.10
2023-05-10T05:07:53.283Z,5.00
2023-05-10T05:10:23.567Z,5.90
2023-05-10T05:12:52.221Z,6.30
2023-05-10T05:15:20.821Z,6.30
2023-05-10T05:17:49.431Z,6.10
2023-05-10T05:20:19.520Z,5.60
2023-05-10T05:22:48.154Z,4.50
2023-05-10T05:25:17.608Z,5.60
2023-05-10T05:27:46.198Z,5.20
2023-05-10T05:30:18.284Z,5.80
2023-05-10T05:32:47.894Z,5.80
2023-05-10T05:35:16.669Z,5.50
2023-05-10T05:37:45.451Z,6.20
2023-05-10T05:40:17.035Z,5.50
2023-05-10T05:42:45.500Z,5.40
2023-05-10T05:45:14.953Z,5.60
2023-05-10T05:47:44.199Z,5.10
2023-05-10T05:50:13.089Z,5.40
2023-05-10T05:52:41.616Z,4.90
2023-05-10T05:55:12.456Z,5.10
2023-05-10T05:57:40.830Z,5.30
2023-05-10T06:00:10.917Z,4.50
2023-05-10T06:02:39.552Z,4.70
2023-05-10T06:05:10.593Z,4.40
2023-05-10T06:07:40.294Z,4.30
2023-05-10T06:10:09.919Z,4.40
2023-05-10T06:12:38.549Z,4.30
2023-05-10T06:15:09.487Z,4.00
2023-05-10T06:17:39.224Z,4.20
2023-05-10T06:20:10.344Z,4.10
2023-05-10T06:22:39.177Z,3.80
2023-05-10T06:25:09.738Z,4.70
2023-05-10T06:27:38.164Z,4.20
2023-05-10T06:30:13.866Z,3.70
2023-05-10T06:32:44.266Z,4.30
2023-05-10T06:35:16.761Z,3.60
2023-05-10T06:37:45.393Z,3.20
2023-05-10T06:40:14.380Z,3.90
2023-05-10T06:42:44.757Z,4.00
2023-05-10T06:45:16.896Z,4.10
2023-05-10T06:47:46.393Z,4.00
2023-05-10T06:50:16.321Z,3.80
2023-05-10T06:52:45.104Z,3.20
2023-05-10T06:55:14.812Z,3.70
2023-05-10T06:57:43.468Z,3.60
2023-05-10T07:00:17.657Z,2.80
2023-05-10T07:02:47.171Z,3.30
2023-05-10T07:05:18.321Z,3.80
2023-05-10T07:07:47.915Z,2.90
2023-05-10T07:10:16.422Z,2.80
2023-05-10T07:12:45.634Z,2.30
2023-05-10T07:15:14.616Z,2.30
2023-05-10T07:17:45.700Z,2.60
2023-05-10T07:20:19.816Z,2.80
2023-05-10T07:22:49.782Z,2.40
2023-05-10T07:25:18.754Z,2.50
2023-05-10T07:27:48.950Z,2.50
2023-05-10T07:30:17.489Z,2.50
2023-05-10T07:32:46.176Z,2.00
2023-05-10T07:35:15.447Z,2.60
2023-05-10T07:37:44.053Z,2.10
2023-05-10T07:40:12.969Z,2.40
2023-05-10T07:42:41.642Z,2.00
2023-05-10T07:45:11.661Z,2.20
2023-05-10T07:47:40.512Z,2.50
2023-05-10T07:50:10.726Z,2.10
2023-05-10T07:52:39.358Z,2.70
2023-05-10T07:55:10.273Z,2.10
2023-05-10T07:57:39.504Z,2.30
2023-05-10T08:00:13.160Z,2.50
2023-05-10T08:02:42.285Z,2.30
2023-05-10T08:05:10.997Z,2.30
2023-05-10T08:07:39.718Z,2.10
2023-05-10T08:10:11.372Z,2.20
2023-05-10T08:12:39.914Z,2.40
2023-05-10T08:15:11.232Z,2.30
2023-05-10T08:17:39.744Z,2.20
2023-05-10T08:20:09.647Z,2.10
2023-05-10T08:22:38.278Z,2.10
2023-05-10T08:25:08.558Z,2.40
2023-05-10T08:27:37.598Z,2.30
2023-05-10T08:30:09.123Z,1.80
2023-05-10T08:32:38.349Z,2.00
2023-05-10T08:35:07.589Z,2.20
2023-05-10T08:37:36.202Z,2.10
2023-05-10T08:40:06.468Z,2.40
2023-05-10T08:42:38.117Z,2.30
2023-05-10T08:45:09.875Z,2.20
2023-05-10T08:47:42.930Z,2.40
2023-05-10T08:50:12.364Z,2.40
2023-05-10T08:52:42.352Z,1.80
2023-05-10T08:55:11.303Z,1.80
2023-05-10T08:57:40.124Z,2.20
2023-05-10T09:00:12.601Z,2.10
2023-05-10T09:02:41.755Z,1.90
2023-05-10T09:05:11.312Z,1.50
2023-05-10T09:07:40.195Z,1.90
2023-05-10T09:10:11.064Z,2.40
2023-05-10T09:12:40.170Z,1.80
2023-05-10T09:15:11.018Z,2.80
2023-05-10T09:17:41.883Z,2.30
2023-05-10T09:20:11.035Z,2.00
2023-05-10T09:22:39.638Z,2.30
2023-05-10T09:25:11.694Z,2.00
2023-05-10T09:27:41.312Z,1.90
2023-05-10T09:30:12.117Z,2.30
2023-05-10T09:32:44.023Z,1.80
2023-05-10T09:35:14.010Z,2.00
2023-05-10T09:37:44.891Z,2.10
2023-05-10T09:40:15.783Z,2.10
2023-05-10T09:42:51.448Z,2.00
2023-05-10T09:45:20.226Z,2.50
2023-05-10T09:47:49.052Z,2.20
2023-05-10T09:50:19.623Z,2.00
2023-05-10T09:52:52.406Z,1.90
2023-05-10T09:55:23.017Z,2.20
2023-05-10T09:58:00.850Z,2.60
2023-05-10T10:00:35.352Z,1.90
2023-05-10T10:03:05.169Z,1.90
2023-05-10T10:05:35.350Z,1.70
2023-05-10T10:08:06.828Z,2.20
2023-05-10T10:10:36.021Z,1.90
2023-05-10T10:13:05.298Z,1.90
2023-05-10T10:15:34.446Z,1.80
2023-05-10T10:18:04.645Z,2.00
2023-05-10T10:20:34.448Z,1.70
2023-05-10T10:23:03.309Z,1.70
2023-05-10T10:25:33.029Z,1.60
2023-05-10T10:28:15.642Z,2.10
2023-05-10T10:30:49.930Z,1.90
2023-05-10T10:33:41.805Z,1.80
2023-05-10T10:36:11.003Z,1.80
2023-05-10T10:39:00.124Z,1.70
2023-05-10T10:41:34.429Z,1.90
2023-05-10T10:44:24.699Z,1.60
2023-05-10T10:47:10.392Z,1.80
2023-05-10T10:49:51.711Z,1.90
2023-05-10T10:52:29.607Z,1.90
2023-05-10T10:55:05.604Z,2.40
2023-05-10T10:57:43.804Z,2.00
2023-05-10T11:00:26.857Z,2.10
2023-05-10T11:02:59.909Z,2.20
2023-05-10T11:05:46.788Z,1.50
2023-05-10T11:08:18.617Z,1.80
2023-05-10T11:11:07.343Z,2.00
2023-05-10T11:13:43.082Z,1.90
2023-05-10T11:16:14.181Z,2.00
2023-05-10T11:18:54.150Z,3.80
2023-05-10T11:21:23.339Z,2.10
2023-05-10T11:23:56.592Z,1.80
2023-05-10T11:26:26.664Z,2.10
2023-05-10T11:28:56.213Z,2.00
2023-05-10T11:31:27.029Z,2.10
2023-05-10T11:34:02.135Z,2.10
2023-05-10T11:36:33.295Z,1.70
2023-05-10T11:39:01.885Z,2.10
2023-05-10T11:41:31.864Z,2.40
2023-05-10T11:44:02.748Z,2.00
2023-05-10T11:46:31.489Z,2.20
2023-05-10T11:49:02.307Z,1.80
2023-05-10T11:51:33.323Z,2.30
2023-05-10T11:54:08.584Z,2.20
2023-05-10T11:56:37.813Z,2.20
2023-05-10T11:59:06.497Z,2.60
2023-05-10T12:01:35.914Z,2.00
2023-05-10T12:04:04.771Z,2.50
2023-05-10T12:06:35.624Z,2.30
2023-05-10T12:09:07.214Z,1.90
2023-05-10T12:11:43.314Z,2.40
2023-05-10T12:14:13.076Z,2.20
2023-05-10T12:16:41.877Z,1.70
2023-05-10T12:19:13.785Z,1.90
2023-05-10T12:21:43.046Z,2.30
2023-05-10T12:24:12.845Z,2.40
2023-05-10T12:29:33.015Z,2.00
2023-05-10T12:32:02.903Z,2.40
2023-05-10T12:34:34.871Z,2.20
2023-05-10T12:37:05.370Z,1.80
2023-05-10T12:39:42.070Z,2.40
2023-05-10T12:42:12.402Z,2.00
2023-05-10T12:44:43.168Z,1.70
2023-05-10T12:47:11.673Z,2.10
2023-05-10T12:49:40.183Z,1.80
2023-05-10T12:52:08.744Z,1.90
2023-05-10T12:54:37.145Z,1.90
2023-05-10T12:57:05.688Z,1.80
2023-05-10T12:59:36.029Z,1.60
2023-05-10T13:02:07.797Z,2.40
2023-05-10T13:04:39.996Z,2.30
2023-05-10T13:07:09.134Z,2.10
2023-05-10T13:09:40.485Z,1.80
2023-05-10T13:12:10.947Z,2.30
2023-05-10T13:14:43.277Z,2.60
2023-05-10T13:17:11.962Z,2.10
2023-05-10T13:19:40.894Z,1.60
2023-05-10T13:22:09.541Z,2.00
2023-05-10T13:24:38.315Z,2.10
2023-05-10T13:27:09.803Z,2.10
2023-05-10T13:29:38.751Z,2.10
2023-05-10T13:32:08.407Z,2.30
2023-05-10T13:34:37.431Z,2.20
2023-05-10T13:37:07.104Z,2.10
2023-05-10T13:39:37.875Z,2.10
2023-05-10T13:42:11.612Z,1.80
2023-05-10T13:47:12.063Z,2.20
2023-05-10T13:49:40.756Z,3.50
2023-05-10T13:52:10.550Z,2.50
2023-05-10T13:54:39.816Z,1.90
2023-05-10T13:57:14.332Z,2.90
2023-05-10T13:59:43.143Z,1.90
2023-05-10T14:02:13.754Z,1.70
2023-05-10T14:04:42.718Z,1.60
2023-05-10T14:07:11.762Z,1.70
2023-05-10T14:09:40.908Z,1.50
2023-05-10T14:12:10.783Z,1.90
2023-05-10T14:14:40.089Z,2.00
2023-05-10T14:17:12.334Z,1.80
2023-05-10T14:19:42.428Z,2.00
2023-05-10T14:22:14.995Z,1.60
2023-05-10T14:24:47.261Z,1.60
2023-05-10T14:27:17.363Z,1.80
2023-05-10T14:29:48.113Z,1.60
2023-05-10T14:34:50.545Z,1.40
2023-05-10T14:37:22.416Z,1.80
2023-05-10T14:42:21.901Z,2.00
2023-05-10T14:44:50.941Z,1.90
2023-05-10T14:47:19.792Z,1.80
2023-05-10T14:49:48.762Z,1.90
2023-05-10T14:52:18.181Z,1.60
2023-05-10T14:54:47.577Z,1.80
2023-05-10T14:57:21.123Z,1.50
2023-05-10T15:02:18.295Z,1.80
2023-05-10T15:04:48.900Z,1.80
2023-05-10T15:07:19.426Z,1.80
2023-05-10T15:09:52.009Z,2.10
2023-05-10T15:12:22.087Z,1.50
2023-05-10T15:14:51.942Z,2.00
2023-05-10T15:17:23.256Z,1.80
2023-05-10T15:19:54.382Z,2.00
2023-05-10T15:22:23.554Z,2.00
2023-05-10T15:24:53.917Z,1.60
2023-05-10T15:27:24.491Z,1.90
2023-05-10T15:29:53.150Z,1.70
2023-05-10T15:32:25.612Z,1.60
2023-05-10T15:34:54.491Z,2.00
2023-05-10T15:37:25.587Z,1.80
2023-05-10T15:39:56.363Z,1.70
2023-05-10T15:42:27.787Z,2.10
2023-05-10T15:44:57.804Z,1.20
2023-05-10T15:47:27.890Z,1.60
2023-05-10T15:50:01.179Z,2.10
2023-05-10T15:52:30.206Z,2.10
2023-05-10T15:54:58.933Z,2.20
2023-05-10T15:57:36.910Z,1.60
2023-05-10T16:00:08.936Z,2.00
2023-05-10T16:02:37.757Z,1.70
2023-05-10T16:05:10.622Z,1.60
2023-05-10T16:07:41.190Z,1.60
2023-05-10T16:10:12.722Z,1.60
2023-05-10T16:12:41.973Z,1.50
2023-05-10T16:15:17.299Z,1.80
2023-05-10T16:17:50.948Z,1.90
2023-05-10T16:20:24.031Z,1.70
2023-05-10T16:22:53.364Z,1.80
2023-05-10T16:25:22.179Z,1.60
2023-05-10T16:27:55.683Z,1.80
2023-05-10T16:30:28.911Z,2.10
2023-05-10T16:32:58.384Z,1.70
2023-05-10T16:35:30.001Z,1.40
2023-05-10T16:38:02.028Z,1.90
2023-05-10T16:40:38.941Z,1.50
2023-05-10T16:43:08.704Z,1.50
2023-05-10T16:45:41.735Z,1.70
2023-05-10T16:48:10.794Z,2.30
2023-05-10T16:50:39.476Z,1.30
2023-05-10T16:53:09.225Z,1.70
2023-05-10T16:55:38.110Z,1.80
2023-05-10T16:58:09.117Z,2.10
2023-05-10T17:00:40.905Z,1.80
2023-05-10T17:03:10.680Z,1.50
2023-05-10T17:05:39.613Z,2.10
2023-05-10T17:08:10.110Z,1.80
2023-05-10T17:10:43.015Z,1.90
2023-05-10T17:13:13.684Z,2.00
2023-05-10T17:15:48.128Z,2.00
2023-05-10T17:18:22.723Z,2.00
2023-05-10T17:20:55.679Z,1.70
2023-05-10T17:26:02.963Z,1.70
2023-05-10T17:28:32.365Z,2.20
2023-05-10T17:31:03.382Z,1.60
2023-05-10T17:33:32.131Z,1.70
2023-05-10T17:36:01.599Z,1.80
2023-05-10T17:38:30.715Z,2.00
2023-05-10T17:41:02.228Z,1.70
2023-05-10T17:43:30.999Z,2.20
2023-05-10T17:46:00.053Z,2.00
2023-05-10T17:48:29.460Z,1.90
2023-05-10T17:51:04.484Z,1.80
2023-05-10T17:53:34.569Z,2.20
2023-05-10T17:56:16.404Z,1.80
2023-05-10T17:58:52.661Z,2.30
2023-05-10T18:01:29.771Z,1.50
2023-05-10T18:04:22.181Z,2.20
2023-05-10T18:06:54.613Z,2.10
2023-05-10T18:09:31.394Z,2.10
2023-05-10T18:12:06.437Z,1.90
2023-05-10T18:14:41.614Z,2.40
2023-05-10T18:17:27.542Z,2.50
2023-05-10T18:19:58.539Z,2.90
2023-05-10T18:22:47.924Z,2.60
2023-05-10T18:25:22.585Z,2.60
2023-05-10T18:28:02.908Z,2.70
2023-05-10T18:30:36.790Z,3.00
2023-05-10T18:33:16.754Z,2.60
2023-05-10T18:35:53.289Z,3.10
2023-05-10T18:38:31.499Z,2.80
2023-05-10T18:41:33.588Z,2.80
2023-05-10T18:44:11.506Z,2.90
2023-05-10T18:46:41.832Z,3.30
2023-05-10T18:49:19.440Z,3.10
2023-05-10T18:51:55.584Z,2.70
2023-05-10T18:54:30.802Z,3.30
2023-05-10T18:57:07.216Z,2.60
2023-05-10T18:59:37.086Z,2.90
2023-05-10T19:02:08.001Z,3.30
2023-05-10T19:04:52.672Z,2.80
2023-05-10T19:07:34.373Z,3.00
2023-05-10T19:10:17.237Z,2.90
2023-05-10T19:12:47.163Z,2.60
2023-05-10T19:15:19.272Z,3.10
2023-05-10T19:17:56.447Z,3.10
2023-05-10T19:20:38.162Z,3.40
2023-05-10T19:23:12.685Z,4.80
2023-05-10T19:25:47.524Z,3.90
2023-05-10T19:28:39.780Z,3.80
2023-05-10T19:31:14.400Z,3.50
2023-05-10T19:33:46.909Z,3.90
2023-05-10T19:36:18.834Z,4.00
2023-05-10T19:38:48.411Z,4.30
2023-05-10T19:41:19.776Z,3.70
2023-05-10T19:43:48.295Z,3.90
2023-05-10T19:46:17.918Z,4.20
2023-05-10T19:48:51.334Z,4.20
2023-05-10T19:51:19.812Z,5.10
2023-05-10T19:53:48.245Z,4.00
2023-05-10T19:56:17.724Z,4.50
2023-05-10T19:58:46.141Z,4.30
2023-05-10T20:01:15.183Z,4.30
2023-05-10T20:03:43.885Z,4.90
2023-05-10T20:06:12.653Z,4.40
2023-05-10T20:08:42.249Z,4.70
2023-05-10T20:11:11.794Z,4.60
2023-05-10T20:13:40.291Z,5.10
2023-05-10T20:16:09.088Z,4.30
2023-05-10T20:18:38.536Z,5.10
2023-05-10T20:21:07.390Z,5.30
2023-05-10T20:23:36.624Z,5.30
2023-05-10T20:26:06.188Z,5.30
2023-05-10T20:28:35.533Z,5.20
2023-05-10T20:31:04.257Z,5.70
2023-05-10T20:33:33.280Z,5.40
2023-05-10T20:36:01.816Z,5.60
2023-05-10T20:38:30.440Z,5.10
2023-05-10T20:40:59.498Z,5.50
2023-05-10T20:43:28.494Z,5.80
2023-05-10T20:45:57.183Z,5.10
2023-05-10T20:48:25.663Z,5.40
2023-05-10T20:50:54.955Z,4.80
2023-05-10T20:53:23.652Z,5.40
2023-05-10T20:55:52.138Z,5.20
2023-05-10T20:58:20.586Z,5.30
2023-05-10T21:00:49.189Z,4.80
2023-05-10T21:03:20.958Z,5.40
2023-05-10T21:05:50.637Z,5.10
2023-05-10T21:08:19.537Z,5.20
2023-05-10T21:10:48.017Z,5.80
2023-05-10T21:13:17.028Z,5.20
2023-05-10T21:15:45.869Z,5.50
2023-05-10T21:18:14.307Z,6.00
2023-05-10T21:20:43.819Z,5.60
2023-05-10T21:23:15.978Z,5.50
2023-05-10T21:25:44.733Z,5.60
2023-05-10T21:28:13.203Z,5.60
2023-05-10T21:30:41.521Z,5.30
2023-05-10T21:33:15.065Z,5.30
2023-05-10T21:35:43.637Z,6.10
2023-05-10T21:38:12.703Z,6.00
2023-05-10T21:40:41.127Z,5.80
2023-05-10T21:43:11.934Z,5.80
2023-05-10T21:45:40.714Z,5.60
2023-05-10T21:48:09.880Z,6.20
2023-05-10T21:50:38.295Z,5.50
2023-05-10T21:53:07.578Z,5.80
2023-05-10T21:55:36.526Z,6.40
2023-05-10T21:58:05.557Z,6.10
2023-05-10T22:00:34.351Z,5.60
2023-05-10T22:03:03.100Z,5.80
2023-05-10T22:05:31.809Z,5.90
2023-05-10T22:08:00.430Z,5.80
2023-05-10T22:10:29.106Z,5.80
2023-05-10T22:12:59.165Z,6.00
2023-05-10T22:15:27.881Z,6.40
2023-05-10T22:17:56.352Z,5.90
2023-05-10T22:20:24.975Z,6.60
2023-05-10T22:22:54.237Z,5.80
2023-05-10T22:25:22.637Z,5.70
2023-05-10T22:27:51.705Z,5.50
2023-05-10T22:30:20.422Z,5.80
2023-05-10T22:32:49.098Z,5.50
2023-05-10T22:35:17.901Z,5.60
2023-05-10T22:37:46.791Z,5.70
2023-05-10T22:40:15.640Z,5.40
2023-05-10T22:42:44.573Z,5.20
2023-05-10T22:45:13.130Z,5.20
2023-05-10T22:47:43.312Z,5.00
2023-05-10T22:50:12.428Z,5.20
2023-05-10T22:52:40.785Z,5.10
2023-05-10T22:55:10.290Z,5.10
2023-05-10T22:57:38.966Z,4.90
2023-05-10T23:00:10.279Z,5.30
2023-05-10T23:02:38.806Z,4.80
2023-05-10T23:05:09.964Z,4.40
2023-05-10T23:07:38.810Z,5.00
2023-05-10T23:10:08.706Z,5.00
2023-05-10T23:12:37.432Z,4.70
2023-05-10T23:15:07.903Z,4.70
2023-05-10T23:17:36.531Z,4.80
2023-05-10T23:20:06.861Z,4.80
2023-05-10T23:22:35.319Z,4.90
2023-05-10T23:25:04.136Z,4.30
2023-05-10T23:27:32.528Z,4.60
2023-05-10T23:30:01.640Z,4.20
2023-05-10T23:32:30.166Z,4.80
2023-05-10T23:34:59.147Z,4.90
2023-05-10T23:37:27.685Z,4.90
2023-05-10T23:39:56.340Z,4.50
2023-05-10T23:42:24.808Z,2.50
2023-05-10T23:44:53.216Z,4.60
2023-05-10T23:47:21.683Z,4.50
2023-05-10T23:49:51.296Z,4.90
2023-05-10T23:52:22.283Z,4.10
2023-05-10T23:54:50.648Z,4.50
2023-05-10T23:57:19.234Z,4.40
2023-05-10T23:59:47.984Z,4.70
